Latest Coastal Weather Observations for Albion Park

IDN60701

Issued at 6:55 pm EST Friday 25 July 2014 (issued every 10 minutes, with the page automatically refreshed every 10 minutes)

About coastal observations | Map of coastal stations | Coastal observations for NSW | Marine services | Other Formats
Station Details ID: 068241 Name: WOLLONGONG AIRPORT Lat: -34.56 Lon: 150.79 Height: 8.0 m
Data from the previous 72 hours. | See also: Recent months at Albion Park
Date/Time
EST
Temp

°C
Wind Pressure Rain
since 9am
mm
Weather Cloud Vis
km
Sea
Height
m
Swell
Dir
 
Speed
knots
Gust
knots
hPa Trend Height
m
Period
s
Dir
25/06:30pm 13.7 W 5 6 1020.3 - 0.0 - - 10 - - - -
25/06:00pm 13.4 W 5 6 1020.0 - 0.0 - - 10 - - - -
25/05:30pm 15.9 W 4 5 1019.7 - 0.0 - - 10 - - - -
25/05:00pm 17.6 N 2 3 1019.2 - 0.0 - - 10 - - - -
25/04:30pm 19.6 NNE 4 6 1018.9 - 0.0 - - 10 - - - -
25/04:00pm 19.4 NE 6 9 1018.7 - 0.0 - Partly cloudy 10 - - - -
25/03:30pm 18.7 NE 7 9 1019.0 - 0.0 - Partly cloudy 10 - - - -
25/03:00pm 19.4 NE 10 11 1018.8 - 0.0 - Partly cloudy 10 - - - -
25/02:30pm 20.7 ENE 8 11 1018.5 - 0.0 - - 10 - - - -
25/02:00pm 20.5 ENE 7 9 1018.6 - 0.0 - - 10 - - - -
25/01:30pm 20.5 ENE 7 10 1018.9 - 0.0 - - 10 - - - -
25/01:00pm 19.8 NE 8 12 1019.1 - 0.0 - - 10 - - - -
25/12:30pm 19.1 N 8 11 1019.6 - 0.0 - - 10 - - - -
25/12:00pm 17.5 N 10 13 1019.9 - 0.0 - Mostly cloudy 10 - - - -
25/11:30am 16.9 N 10 13 1020.8 - 0.0 - - 10 - - - -
25/11:00am 16.2 NE 8 10 1021.2 - 0.0 - - 10 - - - -
25/10:30am 15.9 NE 5 9 1021.4 - 0.0 - - 10 - - - -
25/10:00am 12.4 SW 4 6 1021.4 - 0.0 - - 10 - - - -
25/09:30am 11.8 SW 1 4 1021.3 - 0.0 - Partly cloudy 10 - - - -
25/09:00am 10.7 W 3 6 1021.4 - 0.0 - Cloudy 10 - - - -
25/08:30am 9.5 W 5 13 1021.1 - 0.0 - Partly cloudy 10 - - - -
25/08:00am 6.1 NW 3 6 1021.0 - 0.0 - Partly cloudy 10 - - - -
25/07:30am 5.1 NW 3 4 1020.9 - 0.0 - Partly cloudy 10 - - - -
25/07:00am 4.6 CALM 0 3 1020.5 - 0.0 - Partly cloudy 10 - - - -
25/06:30am 5.1 NW 1 4 1020.1 - 0.0 - - 10 - - - -
25/06:00am 3.6 W 3 5 1020.0 - 0.0 - Mostly clear 10 - - - -
25/05:30am 4.4 CALM 0 0 1019.7 - 0.0 - - 10 - - - -
25/05:00am 4.5 CALM 0 0 1019.5 - 0.0 - - 10 - - - -
25/04:30am 4.5 W 4 5 1019.6 - 0.0 - Partly cloudy 10 - - - -
25/04:00am 5.1 W 3 4 1019.5 - 0.0 - - 10 - - - -
25/03:30am 6.0 W 3 4 1019.4 - 0.0 - - 10 - - - -
25/03:00am 5.2 W 3 4 1019.7 - 0.0 - - 10 - - - -
25/02:30am 6.5 WSW 1 3 1019.7 - 0.0 - - 10 - - - -
25/02:00am 7.1 WSW 4 4 1019.8 - 0.0 - - 10 - - - -
25/01:30am 7.4 WSW 3 4 1019.9 - 0.0 - - 10 - - - -
25/01:00am 7.3 WSW 4 5 1019.7 - 0.0 - - 10 - - - -
25/12:30am 9.1 WSW 3 4 1019.8 - 0.0 - Partly cloudy 10 - - - -
25/12:00am 9.6 S 5 6 1020.1 - 0.0 - Mostly clear 10 - - - -
 
Date/Time
EST
Temp

°C
Wind Pressure Rain
since 9am
mm
Weather Cloud Vis
km
Sea
Height
m
Swell
Dir
 
Speed
knots
Gust
knots
hPa Trend Height
m
Period
s
Dir
24/11:30pm 9.7 SW 2 5 1020.2 - 0.0 - Partly cloudy 10 - - - -
24/11:00pm 10.2 NNE 4 4 1020.3 - 0.0 - Partly cloudy 10 - - - -
24/10:30pm 12.7 WNW 5 7 1020.2 - 0.0 - Partly cloudy 10 - - - -
24/10:00pm 9.5 W 7 10 1020.3 - 0.0 - - 10 - - - -
24/09:30pm 9.0 NNW 2 4 1020.3 - 0.0 - - 10 - - - -
24/09:00pm 8.8 NNW 1 4 1020.5 - 0.0 - Partly cloudy 10 - - - -
24/08:30pm 8.9 CALM 0 0 1020.3 - 0.0 - - 10 - - - -
24/08:00pm 9.9 NNW 1 3 1020.2 - 0.0 - - 10 - - - -
24/07:30pm 10.1 NNW 4 5 1019.9 - 0.0 - - 10 - - - -
24/07:00pm 10.5 NNW 4 6 1019.6 - 0.0 - - 10 - - - -
24/06:30pm 13.2 NNW 3 4 1019.4 - 0.0 - - 10 - - - -
24/06:00pm 14.9 N 4 5 1019.1 - 0.0 - Cloudy 10 - - - -
24/05:30pm 15.4 E 4 5 1018.9 - 0.0 - Cloudy 10 - - - -
24/05:00pm 16.0 NNE 4 6 1019.0 - 0.0 - Cloudy 10 - - - -
24/04:30pm 16.1 NNE 5 8 1018.9 - 0.0 - Cloudy 10 - - - -
24/04:00pm 16.0 ENE 8 10 1018.6 - 0.0 - - 10 - - - -
24/03:30pm 16.6 NE 8 10 1018.4 - 0.0 - - 10 - - - -
24/03:00pm 17.9 ENE 7 9 1018.3 - 0.0 - Cloudy 10 - - - -
24/02:30pm 17.6 ENE 6 9 1018.6 - 0.0 - - 10 - - - -
24/02:00pm 17.6 NE 6 9 1018.9 - 0.0 - - 10 - - - -
24/01:30pm 16.8 NE 5 6 1019.4 - 0.0 - - 10 - - - -
24/01:00pm 16.6 NNW 4 6 1019.8 - 0.0 - - 10 - - - -
24/12:30pm 16.2 NNW 3 5 1020.2 - 0.0 - - 10 - - - -
24/12:00pm 16.2 N 5 8 1020.8 - 0.0 - Cloudy 10 - - - -
24/11:30am 16.4 NNE 6 8 1021.3 - 0.0 - Partly cloudy 10 - - - -
24/11:00am 16.4 N 4 6 1021.9 - 0.0 - - 10 - - - -
24/10:30am 16.3 NNW 5 7 1021.9 - 0.0 - Partly cloudy 10 - - - -
24/10:00am 16.0 NNW 7 11 1022.6 - 0.0 - Partly cloudy 10 - - - -
24/09:30am 15.5 NW 5 7 1022.2 - 0.0 - - 10 - - - -
24/09:00am 12.2 WSW 3 6 1022.2 - 0.0 - Mostly cloudy 10 - - - -
24/08:30am 9.8 W 1 4 1021.9 - 0.0 - Partly cloudy 10 - - - -
24/08:00am 6.1 W 4 7 1021.8 - 0.0 - - 10 - - - -
24/07:30am 5.1 W 1 4 1022.0 - 0.0 - - 10 - - - -
24/07:00am 4.5 CALM 0 2 1021.9 - 0.0 - - 10 - - - -
24/06:30am 4.5 CALM 0 0 1021.7 - 0.0 - Partly cloudy 10 - - - -
24/06:00am 4.3 CALM 0 0 1021.3 - 0.0 - Cloudy 10 - - - -
24/05:41am 4.0 W 1 3 1021.1 - 0.0 - - 9 - - - -
24/05:30am 3.5 W 3 4 1021.0 - 0.0 - Partly cloudy 3 - - - -
24/05:00am 3.8 WSW 3 4 1020.8 - 0.0 - Cloudy 0.4 - - - -
24/04:30am 3.5 WSW 3 5 1021.0 - 0.0 - Partly cloudy 0.4 - - - -
24/04:23am 4.1 WSW 1 5 1021.0 - 0.0 - Partly cloudy 0.5 - - - -
24/04:01am 3.6 WSW 1 4 1020.8 - 0.0 - Partly cloudy 2 - - - -
24/04:00am 3.7 WSW 1 4 1020.9 - 0.0 - Partly cloudy 6 - - - -
24/03:51am 4.4 CALM 0 0 1020.8 - 0.0 - Partly cloudy 10 - - - -
24/03:30am 5.4 CALM 0 0 1020.8 - 0.0 - Partly cloudy 3 - - - -
24/03:22am 4.8 CALM 0 0 1020.8 - 0.0 - - 5 - - - -
24/03:00am 6.1 CALM 0 0 1020.9 - 0.0 - Partly cloudy 10 - - - -
24/02:30am 6.4 CALM 0 0 1021.1 - 0.0 - Partly cloudy 10 - - - -
24/02:00am 5.6 CALM 0 0 1021.2 - 0.0 - Partly cloudy 10 - - - -
24/01:30am 5.7 CALM 0 0 1021.6 - 0.0 - - 10 - - - -
24/01:21am 5.6 CALM 0 0 1021.6 - 0.0 - - 10 - - - -
24/01:00am 5.5 CALM 0 0 1021.7 - 0.0 - - 1 - - - -
24/12:49am 5.9 CALM 0 0 1021.7 - 0.0 - - 5 - - - -
24/12:30am 6.4 CALM 0 0 1021.9 - 0.0 - - 10 - - - -
24/12:09am 6.3 CALM 0 0 1022.3 - 0.0 - - 6 - - - -
24/12:00am 6.4 CALM 0 0 1022.3 - 0.0 - Partly cloudy 7 - - - -
 
Date/Time
EST
Temp

°C
Wind Pressure Rain
since 9am
mm
Weather Cloud Vis
km
Sea
Height
m
Swell
Dir
 
Speed
knots
Gust
knots
hPa Trend Height
m
Period
s
Dir
23/11:49pm 6.7 CALM 0 0 1022.3 - 0.0 - - 5 - - - -
23/11:30pm 6.6 CALM 0 0 1022.6 - 0.0 - Partly cloudy 10 - - - -
23/11:00pm 7.4 CALM 0 0 1022.7 - 0.0 - Partly cloudy 10 - - - -
23/10:30pm 7.8 CALM 0 0 1022.9 - 0.0 - - 10 - - - -
23/10:00pm 8.1 W 5 6 1023.1 - 0.0 - - 10 - - - -
23/09:30pm 8.7 CALM 0 0 1023.2 - 0.0 - - 10 - - - -
23/09:00pm 9.3 CALM 0 0 1023.1 - 0.0 - Partly cloudy 10 - - - -
23/08:30pm 9.9 W 3 4 1023.0 - 0.0 - Partly cloudy 10 - - - -
23/08:00pm 10.4 W 3 4 1022.9 - 0.0 - Partly cloudy 10 - - - -
23/07:30pm 10.2 W 3 3 1022.7 - 0.0 - Cloudy 10 - - - -
23/07:00pm 9.9 W 4 4 1022.7 - 0.0 - Cloudy 10 - - - -
23/06:30pm 10.1 WNW 4 4 1022.5 - 0.0 - Partly cloudy 10 - - - -
23/06:00pm 10.6 W 3 4 1022.4 - 0.0 - Cloudy 10 - - - -
23/05:30pm 12.9 CALM 0 0 1022.2 - 0.0 - - 10 - - - -
23/05:00pm 14.1 ENE 3 5 1022.0 - 0.0 - - 10 - - - -
23/04:30pm 15.2 NE 6 7 1021.8 - 0.0 - - 10 - - - -
23/04:00pm 15.5 NE 7 9 1021.8 - 0.0 - - 10 - - - -
23/03:30pm 16.4 NE 7 10 1021.7 - 0.0 - - 10 - - - -
23/03:00pm 16.4 NE 8 10 1021.7 - 0.0 - - 10 - - - -
23/02:30pm 16.4 ENE 8 12 1021.6 - 0.0 - - 10 - - - -
23/02:00pm 16.3 NE 9 11 1021.7 - 0.0 - - 10 - - - -
23/01:30pm 16.8 NE 8 11 1021.9 - 0.0 - - 10 - - - -
23/01:00pm 16.8 NE 8 11 1022.1 - 0.0 - - 10 - - - -
23/12:30pm 17.5 NE 7 10 1022.7 - 0.0 - - 10 - - - -
23/12:00pm 17.1 ENE 7 9 1023.4 - 0.0 - - 10 - - - -
23/11:30am 16.9 ENE 6 8 1024.1 - 0.0 - Partly cloudy 10 - - - -
23/11:00am 17.3 ENE 5 8 1024.6 - 0.0 - - 10 - - - -
23/10:30am 16.6 N 3 6 1025.1 - 0.0 - - 10 - - - -
23/10:00am 16.3 CALM 0 3 1025.3 - 0.0 - - 10 - - - -
23/09:30am 14.6 CALM 0 0 1025.3 - 0.0 - - 10 - - - -
23/09:00am 12.2 NW 1 5 1025.3 - 0.0 - Mostly clear 10 - - - -
23/08:30am 10.3 WNW 3 4 1025.2 - 0.0 - Cloudy 10 - - - -
23/08:00am 8.0 W 1 3 1025.0 - 0.0 - Cloudy 10 - - - -
23/07:30am 6.0 W 3 4 1024.9 - 0.0 - Cloudy 10 - - - -
23/07:00am 4.6 W 4 5 1024.6 - 0.0 - Partly cloudy 10 - - - -
23/06:30am 4.1 CALM 0 0 1024.2 - 0.0 - Partly cloudy 10 - - - -
23/06:00am 3.8 WNW 2 3 1024.0 - 0.0 - - 10 - - - -
23/05:30am 4.2 CALM 0 0 1023.6 - 0.0 - - 10 - - - -
23/05:00am 4.5 CALM 0 0 1023.4 - 0.0 - - 10 - - - -
23/04:30am 4.7 W 2 4 1023.2 - 0.0 - - 10 - - - -
23/04:20am 4.7 W 3 4 1023.2 - 0.0 - - 10 - - - -
23/04:04am 4.1 W 4 6 1023.2 - 0.0 - - 5 - - - -
23/04:00am 5.1 W 4 5 1023.2 - 0.0 - - 10 - - - -
23/03:30am 6.9 WNW 1 4 1023.2 - 0.0 - - 10 - - - -
23/03:00am 6.8 CALM 0 0 1023.4 - 0.0 - - 10 - - - -
23/02:30am 8.0 NW 2 4 1023.9 - 0.0 - Partly cloudy 10 - - - -
23/02:00am 8.0 CALM 0 0 1024.0 - 0.0 - Partly cloudy 10 - - - -
23/01:30am 8.1 CALM 0 0 1024.0 - 0.0 - - 10 - - - -
23/01:00am 8.4 W 3 4 1024.0 - 0.0 - Cloudy 10 - - - -
23/12:30am 8.8 W 3 4 1024.1 - 0.0 - Partly cloudy 10 - - - -
23/12:00am 8.9 WNW 3 4 1024.3 - 0.0 - Cloudy 10 - - - -
 
Date/Time
EST
Temp

°C
Wind Pressure Rain
since 9am
mm
Weather Cloud Vis
km
Sea
Height
m
Swell
Dir
 
Speed
knots
Gust
knots
hPa Trend Height
m
Period
s
Dir
22/11:30pm 8.3 CALM 0 1 1024.4 - 0.0 - Partly cloudy 10 - - - -
22/11:00pm 8.5 W 3 4 1024.4 - 0.0 - Partly cloudy 10 - - - -
22/10:30pm 8.4 W 3 4 1024.4 - 0.0 - Cloudy 10 - - - -
22/10:00pm 8.4 W 1 4 1024.4 - 0.0 - Partly cloudy 10 - - - -
22/09:30pm 8.3 W 4 5 1024.4 - 0.0 - Partly cloudy 10 - - - -
22/09:00pm 8.1 WNW 2 3 1024.4 - 0.0 - - 10 - - - -
22/08:30pm 8.4 W 2 4 1024.4 - 0.0 - Cloudy 10 - - - -
22/08:00pm 9.4 W 3 4 1024.4 - 0.0 - Cloudy 10 - - - -
22/07:30pm 8.9 W 6 7 1024.4 - 0.0 - Partly cloudy 10 - - - -
22/07:00pm 8.5 W 5 6 1024.2 - 0.0 - Partly cloudy 10 - - - -

Other Formats:

Comma delimited format used in spreadsheet applications
http://www.bom.gov.au/fwo/IDN60701/IDN60701.95748.axf

JavaScript Object Notation format (JSON) in row-major order
http://www.bom.gov.au/fwo/IDN60701/IDN60701.95748.json